Airfield :
LOGIN :

Register | Disclaimer

   EN    FR    IT 

 










Legend :    VFR   Marginal VFR   IFR   Intensive IFR   Very Intensive IFR
Visi :
Ceiling :
>= 8 km
>= 3000ft
5 to 8 km
1000 to 3000 ft
1500m to 5 km
500 to 1000 ft
800 to 1500m
200 to 500 ft
< 800m
< 200 ft
Symbols :   Thunderstorms  Fog  Heavy snow  Heavy precipitations  Wind > 20 kt
SIGMETs :     Misc.  Thunderstorms  Icing  Turbulence  Mountain Waves  Volcanic Ashes







- Airport Elevation : 1046 ft
- IATA code : NUE


EDDN - Nuremberg

EXPIRED METARs :
  • 241420Z 26013KT 230V300 CAVOK 27/10 Q1015 NOSIG
  • 241403Z 27016G26KT CAVOK 26/11 Q1015 NOSIG
  • 241350Z 27016KT CAVOK 26/09 Q1015 NOSIG
  • 241320Z 27017KT 240V310 CAVOK 27/11 Q1016 NOSIG
  • 241250Z 27018KT 240V300 CAVOK 26/10 Q1016 NOSIG
  • 241220Z 28017KT CAVOK 26/11 Q1016 NOSIG
  • 241200Z 27017G27KT 240V300 CAVOK 25/10 Q1016 NOSIG
  • 241150Z 28016KT CAVOK 26/10 Q1016 NOSIG

TAF TAF EDDN
Valid from the 24 at 12:00 until the 25 at 12:00 UTC


241100Z 2412/2512 26012G25KT CAVOK
BECMG 2417/2419 24005KT
BECMG 2422/2424 12004KT
BECMG 2507/2509 26010KT
No reported NOTAMs for that airfield.
1 SIGMET reported for the München FIR (EDMM) :
 
Embedded thunderstorms
EDMM SIGMET 1 VALID 250500/250800 EDZM
EDMM MUNCHEN FIR EMBD TS FCST S OF N4750 TOP FL380 MOV E NC=



MET'MAP, your aeronautical weather chart ! - Copyright ORBIFLY December 2007 - Disclaimer

ORBIFLY MET'MAP TEAM :

Programming & Development : Alexandra Zaïnal
Concept & Development : Baudouin d'Aumeries
Co-Development & Prog : Marc-Olivier Méhu
Technical & hardware support : Manuel Goepfert

Contact : metmap@orbifly.com




SOURCES & CREDITS :

   NOAA